N495CX KSAN-KHOU
Flight info
| Callsign | N495CX |
|---|---|
| Flight time | 2h 25m |
| Altitude | 37000 |
| Route | ZZOOO4 GBN J50 ELP HUP FST CSI REUBE SAT BELLR6 |
| Aircraft | FA50/M-SDFGHIM1RWXY/H |
Departure
| Time | 2026-04-22 19:07 |
|---|---|
| Airport | San Diego International Airport (KSAN) |
Arrival
| Time | 2026-04-22 21:33 |
|---|---|
| Airport | William P. Hobby Airport (KHOU) |
| Time | Latitude | Longitude | Altitude | Speed | Heading |
|---|---|---|---|---|---|
| 2026-04-22 18:50 | 32.73322 | -117.17694 | 24 ft | 0 kts | 232° |
| 2026-04-22 19:03 | 32.73311 | -117.17717 | 24 ft | 6 kts | 253° |
| 2026-04-22 19:03 | 32.73315 | -117.17762 | 24 ft | 7 kts | 285° |
| 2026-04-22 19:03 | 32.73334 | -117.17851 | 24 ft | 14 kts | 285° |
| 2026-04-22 19:03 | 32.73348 | -117.17949 | 24 ft | 7 kts | 232° |
| 2026-04-22 19:04 | 32.73299 | -117.17970 | 24 ft | 4 kts | 193° |
| 2026-04-22 19:04 | 32.73286 | -117.17973 | 24 ft | 0 kts | 193° |
| 2026-04-22 19:04 | 32.73255 | -117.17979 | 24 ft | 9 kts | 178° |
| 2026-04-22 19:04 | 32.73210 | -117.17888 | 24 ft | 17 kts | 106° |
| 2026-04-22 19:05 | 32.73176 | -117.17745 | 24 ft | 15 kts | 104° |
| 2026-04-22 19:05 | 32.73154 | -117.17643 | 24 ft | 9 kts | 110° |
| 2026-04-22 19:05 | 32.73129 | -117.17586 | 24 ft | 6 kts | 129° |
| 2026-04-22 19:05 | 32.73106 | -117.17561 | 24 ft | 6 kts | 145° |
| 2026-04-22 19:06 | 32.73041 | -117.17525 | 24 ft | 14 kts | 176° |
| 2026-04-22 19:06 | 32.73038 | -117.17660 | 24 ft | 42 kts | 285° |
| 2026-04-22 19:06 | 32.73180 | -117.18243 | 24 ft | 100 kts | 286° |
| 2026-04-22 19:07 | 32.73690 | -117.20345 | 297 ft | 145 kts | 286° |
| 2026-04-22 19:07 | 32.73989 | -117.21608 | 545 ft | 171 kts | 285° |
| 2026-04-22 19:07 | 32.74309 | -117.22975 | 1190 ft | 175 kts | 286° |
| 2026-04-22 19:07 | 32.74642 | -117.24345 | 1934 ft | 175 kts | 285° |
| 2026-04-22 19:08 | 32.74976 | -117.25729 | 2611 ft | 179 kts | 285° |
| 2026-04-22 19:08 | 32.75300 | -117.27132 | 3351 ft | 179 kts | 282° |
| 2026-04-22 19:08 | 32.75620 | -117.28564 | 4032 ft | 182 kts | 284° |
| 2026-04-22 19:08 | 32.75996 | -117.29984 | 4784 ft | 181 kts | 283° |
| 2026-04-22 19:09 | 32.76335 | -117.31403 | 5467 ft | 182 kts | 274° |
| 2026-04-22 19:09 | 32.76085 | -117.32893 | 5774 ft | 196 kts | 230° |
| 2026-04-22 19:09 | 32.74908 | -117.33676 | 6242 ft | 211 kts | 183° |
| 2026-04-22 19:09 | 32.73436 | -117.33353 | 6879 ft | 225 kts | 162° |
| 2026-04-22 19:10 | 32.72033 | -117.32385 | 7479 ft | 243 kts | 150° |
| 2026-04-22 19:10 | 32.70647 | -117.31263 | 8340 ft | 247 kts | 147° |
| 2026-04-22 19:10 | 32.69283 | -117.30045 | 9282 ft | 250 kts | 146° |
| 2026-04-22 19:10 | 32.67902 | -117.28825 | 10262 ft | 251 kts | 145° |
| 2026-04-22 19:11 | 32.66510 | -117.27595 | 11207 ft | 252 kts | 143° |
| 2026-04-22 19:11 | 32.65125 | -117.26350 | 12088 ft | 254 kts | 142° |
| 2026-04-22 19:11 | 32.63870 | -117.24905 | 12839 ft | 260 kts | 125° |
| 2026-04-22 19:11 | 32.63023 | -117.22974 | 13508 ft | 271 kts | 108° |
| 2026-04-22 19:12 | 32.62742 | -117.20685 | 13938 ft | 291 kts | 97° |
| 2026-04-22 19:12 | 32.62613 | -117.18292 | 14590 ft | 299 kts | 97° |
| 2026-04-22 19:12 | 32.62450 | -117.15731 | 14747 ft | 324 kts | 99° |
| 2026-04-22 19:12 | 32.62161 | -117.13010 | 15238 ft | 335 kts | 101° |
| 2026-04-22 19:13 | 32.62147 | -117.10261 | 15951 ft | 343 kts | 86° |
| 2026-04-22 19:13 | 32.62785 | -117.07477 | 16597 ft | 354 kts | 72° |
| 2026-04-22 19:13 | 32.63712 | -117.04789 | 17302 ft | 356 kts | 72° |
| 2026-04-22 19:13 | 32.64608 | -117.02062 | 17843 ft | 362 kts | 73° |
| 2026-04-22 19:14 | 32.65533 | -116.99229 | 18480 ft | 366 kts | 73° |
| 2026-04-22 19:14 | 32.66296 | -116.96365 | 19024 ft | 365 kts | 83° |
| 2026-04-22 19:14 | 32.66684 | -116.93392 | 19591 ft | 365 kts | 91° |
| 2026-04-22 19:14 | 32.66768 | -116.90400 | 20162 ft | 366 kts | 94° |
| 2026-04-22 19:15 | 32.66833 | -116.87374 | 20683 ft | 370 kts | 94° |
| 2026-04-22 19:15 | 32.66905 | -116.84317 | 21184 ft | 374 kts | 94° |
| 2026-04-22 19:15 | 32.66977 | -116.81235 | 21669 ft | 377 kts | 94° |
| 2026-04-22 19:15 | 32.67050 | -116.78094 | 22136 ft | 381 kts | 94° |
| 2026-04-22 19:16 | 32.67106 | -116.74953 | 22562 ft | 384 kts | 96° |
| 2026-04-22 19:16 | 32.67062 | -116.71783 | 22999 ft | 387 kts | 97° |
| 2026-04-22 19:16 | 32.67011 | -116.68607 | 23387 ft | 391 kts | 97° |
| 2026-04-22 19:16 | 32.66958 | -116.65324 | 23493 ft | 403 kts | 97° |
| 2026-04-22 19:17 | 32.66906 | -116.61972 | 23621 ft | 413 kts | 97° |
| 2026-04-22 19:17 | 32.66849 | -116.58485 | 23778 ft | 422 kts | 97° |
| 2026-04-22 19:17 | 32.66793 | -116.55039 | 24181 ft | 423 kts | 97° |
| 2026-04-22 19:17 | 32.66735 | -116.51546 | 24517 ft | 426 kts | 97° |
| 2026-04-22 19:18 | 32.66674 | -116.48010 | 24825 ft | 430 kts | 97° |
| 2026-04-22 19:18 | 32.66617 | -116.44462 | 25151 ft | 433 kts | 96° |
| 2026-04-22 19:18 | 32.66901 | -116.40840 | 25429 ft | 441 kts | 91° |
| 2026-04-22 19:18 | 32.67108 | -116.37234 | 25783 ft | 442 kts | 91° |
| 2026-04-22 19:19 | 32.67397 | -116.33591 | 25977 ft | 448 kts | 90° |
| 2026-04-22 19:19 | 32.67730 | -116.29881 | 26305 ft | 450 kts | 90° |
| 2026-04-22 19:19 | 32.68061 | -116.26218 | 26514 ft | 454 kts | 90° |
| 2026-04-22 19:19 | 32.68397 | -116.22489 | 26757 ft | 457 kts | 90° |
| 2026-04-22 19:20 | 32.68735 | -116.18742 | 26987 ft | 460 kts | 91° |
| 2026-04-22 19:20 | 32.69073 | -116.14957 | 27214 ft | 462 kts | 90° |
| 2026-04-22 19:20 | 32.69410 | -116.11176 | 27479 ft | 464 kts | 90° |
| 2026-04-22 19:20 | 32.69753 | -116.07314 | 27680 ft | 467 kts | 90° |
| 2026-04-22 19:21 | 32.70093 | -116.03493 | 27899 ft | 469 kts | 90° |
| 2026-04-22 19:21 | 32.70449 | -115.99632 | 28112 ft | 472 kts | 90° |
| 2026-04-22 19:21 | 32.70806 | -115.95795 | 28324 ft | 474 kts | 90° |
| 2026-04-22 19:21 | 32.71166 | -115.91896 | 28482 ft | 477 kts | 90° |
| 2026-04-22 19:22 | 32.71527 | -115.87984 | 28717 ft | 478 kts | 90° |
| 2026-04-22 19:22 | 32.71891 | -115.84015 | 28845 ft | 481 kts | 90° |
| 2026-04-22 19:22 | 32.72252 | -115.80070 | 29057 ft | 482 kts | 90° |
| 2026-04-22 19:22 | 32.72612 | -115.76125 | 29218 ft | 485 kts | 90° |
| 2026-04-22 19:23 | 32.72976 | -115.72124 | 29371 ft | 487 kts | 90° |
| 2026-04-22 19:23 | 32.73338 | -115.68128 | 29519 ft | 489 kts | 90° |
| 2026-04-22 19:23 | 32.73698 | -115.64133 | 29715 ft | 490 kts | 90° |
| 2026-04-22 19:23 | 32.74062 | -115.60089 | 29839 ft | 493 kts | 90° |
| 2026-04-22 19:24 | 32.74424 | -115.56051 | 30007 ft | 494 kts | 90° |
| 2026-04-22 19:24 | 32.74798 | -115.51959 | 30202 ft | 496 kts | 89° |
| 2026-04-22 19:24 | 32.75080 | -115.47940 | 30269 ft | 492 kts | 96° |
| 2026-04-22 19:24 | 32.75084 | -115.43888 | 30531 ft | 491 kts | 96° |
| 2026-04-22 19:25 | 32.75156 | -115.39822 | 30690 ft | 494 kts | 95° |
| 2026-04-22 19:25 | 32.75254 | -115.35702 | 30874 ft | 494 kts | 95° |
| 2026-04-22 19:25 | 32.75349 | -115.31670 | 31092 ft | 493 kts | 96° |
| 2026-04-22 19:25 | 32.75444 | -115.27569 | 31280 ft | 494 kts | 96° |
| 2026-04-22 19:26 | 32.75536 | -115.23508 | 31372 ft | 496 kts | 95° |
| 2026-04-22 19:26 | 32.75628 | -115.19429 | 31566 ft | 496 kts | 96° |
| 2026-04-22 19:26 | 32.75719 | -115.15337 | 31642 ft | 498 kts | 95° |
| 2026-04-22 19:26 | 32.75809 | -115.11195 | 31743 ft | 501 kts | 95° |
| 2026-04-22 19:27 | 32.75898 | -115.07091 | 31889 ft | 502 kts | 95° |
| 2026-04-22 19:27 | 32.76072 | -114.98794 | 32066 ft | 507 kts | 95° |
| 2026-04-22 19:27 | 32.76158 | -114.94571 | 32177 ft | 508 kts | 95° |
| 2026-04-22 19:28 | 32.76244 | -114.90384 | 32322 ft | 509 kts | 95° |
| 2026-04-22 19:28 | 32.76327 | -114.86185 | 32507 ft | 509 kts | 95° |
| 2026-04-22 19:28 | 32.76409 | -114.82009 | 32628 ft | 511 kts | 95° |
| 2026-04-22 19:28 | 32.76490 | -114.77777 | 32816 ft | 511 kts | 95° |
| 2026-04-22 19:29 | 32.76569 | -114.73571 | 32937 ft | 512 kts | 95° |
| 2026-04-22 19:29 | 32.76648 | -114.69330 | 33113 ft | 512 kts | 95° |
| 2026-04-22 19:29 | 32.76725 | -114.65139 | 33327 ft | 511 kts | 95° |
| 2026-04-22 19:29 | 32.76799 | -114.60912 | 33468 ft | 513 kts | 95° |
| 2026-04-22 19:30 | 32.76843 | -114.58081 | 33570 ft | 513 kts | 95° |
| 2026-04-22 19:30 | 32.76925 | -114.52423 | 33823 ft | 513 kts | 95° |
| 2026-04-22 19:30 | 32.76983 | -114.48206 | 33936 ft | 515 kts | 95° |
| 2026-04-22 19:30 | 32.77042 | -114.43964 | 34121 ft | 514 kts | 95° |
| 2026-04-22 19:31 | 32.77098 | -114.39695 | 34241 ft | 516 kts | 95° |
| 2026-04-22 19:31 | 32.77153 | -114.35481 | 34482 ft | 514 kts | 95° |
| 2026-04-22 19:31 | 32.77209 | -114.31143 | 34741 ft | 512 kts | 96° |
| 2026-04-22 19:31 | 32.77260 | -114.26927 | 34901 ft | 512 kts | 96° |
| 2026-04-22 19:32 | 32.77311 | -114.22696 | 35035 ft | 512 kts | 96° |
| 2026-04-22 19:32 | 32.77360 | -114.18492 | 35262 ft | 510 kts | 96° |
| 2026-04-22 19:32 | 32.77406 | -114.14275 | 35369 ft | 511 kts | 95° |
| 2026-04-22 19:32 | 32.77453 | -114.10056 | 35529 ft | 511 kts | 96° |
| 2026-04-22 19:33 | 32.77497 | -114.05836 | 35683 ft | 511 kts | 95° |
| 2026-04-22 19:33 | 32.77541 | -114.01614 | 35888 ft | 509 kts | 96° |
| 2026-04-22 19:33 | 32.77754 | -113.97444 | 36080 ft | 515 kts | 86° |
| 2026-04-22 19:33 | 32.78225 | -113.93214 | 36197 ft | 515 kts | 88° |
| 2026-04-22 19:34 | 32.78766 | -113.89025 | 36342 ft | 517 kts | 85° |
| 2026-04-22 19:34 | 32.79363 | -113.84848 | 36479 ft | 517 kts | 85° |
| 2026-04-22 19:34 | 32.79968 | -113.80641 | 36620 ft | 517 kts | 85° |
| 2026-04-22 19:34 | 32.80567 | -113.76443 | 36798 ft | 516 kts | 85° |
| 2026-04-22 19:35 | 32.81172 | -113.72197 | 36856 ft | 518 kts | 85° |
| 2026-04-22 19:35 | 32.81766 | -113.68028 | 37034 ft | 517 kts | 85° |
| 2026-04-22 19:35 | 32.82362 | -113.63820 | 37102 ft | 519 kts | 85° |
| 2026-04-22 19:36 | 32.83568 | -113.55284 | 37095 ft | 525 kts | 85° |
| 2026-04-22 19:36 | 32.84767 | -113.46756 | 37191 ft | 528 kts | 85° |
| 2026-04-22 19:37 | 32.85978 | -113.38101 | 37258 ft | 532 kts | 85° |
| 2026-04-22 19:37 | 32.87188 | -113.29398 | 37284 ft | 535 kts | 86° |
| 2026-04-22 19:38 | 32.88401 | -113.20637 | 37294 ft | 538 kts | 86° |
| 2026-04-22 19:38 | 32.89613 | -113.11835 | 37359 ft | 539 kts | 86° |
| 2026-04-22 19:39 | 32.90811 | -113.03082 | 37470 ft | 539 kts | 85° |
| 2026-04-22 19:39 | 32.92012 | -112.94257 | 37525 ft | 541 kts | 85° |
| 2026-04-22 19:40 | 32.93212 | -112.85403 | 37548 ft | 544 kts | 85° |
| 2026-04-22 19:40 | 32.94409 | -112.76514 | 37577 ft | 547 kts | 85° |
| 2026-04-22 19:41 | 32.95337 | -112.67517 | 37619 ft | 542 kts | 94° |
| 2026-04-22 19:41 | 32.94854 | -112.58675 | 37731 ft | 534 kts | 103° |
| 2026-04-22 19:42 | 32.94056 | -112.49890 | 37827 ft | 535 kts | 102° |
| 2026-04-22 19:42 | 32.93261 | -112.41113 | 37934 ft | 536 kts | 102° |
| 2026-04-22 19:43 | 32.92052 | -112.27909 | 38111 ft | 535 kts | 103° |
| 2026-04-22 19:43 | 32.91242 | -112.19147 | 38185 ft | 534 kts | 103° |
| 2026-04-22 19:44 | 32.90422 | -112.10346 | 38261 ft | 534 kts | 103° |
| 2026-04-22 19:44 | 32.89605 | -112.01640 | 38353 ft | 534 kts | 103° |
| 2026-04-22 19:45 | 32.88765 | -111.92890 | 38429 ft | 533 kts | 104° |
| 2026-04-22 19:45 | 32.87166 | -111.84414 | 38508 ft | 523 kts | 113° |
| 2026-04-22 19:46 | 32.85305 | -111.76080 | 38543 ft | 525 kts | 112° |
| 2026-04-22 19:46 | 32.83440 | -111.67704 | 38597 ft | 525 kts | 112° |
| 2026-04-22 19:47 | 32.81575 | -111.59360 | 38769 ft | 523 kts | 112° |
| 2026-04-22 19:47 | 32.79704 | -111.51015 | 38802 ft | 524 kts | 112° |
| 2026-04-22 19:48 | 32.77828 | -111.42677 | 38906 ft | 523 kts | 112° |
| 2026-04-22 19:48 | 32.75945 | -111.34335 | 38979 ft | 523 kts | 113° |
| 2026-04-22 19:49 | 32.74056 | -111.25991 | 39024 ft | 523 kts | 113° |
| 2026-04-22 19:49 | 32.72169 | -111.17691 | 39034 ft | 524 kts | 113° |
| 2026-04-22 19:50 | 32.70270 | -111.09360 | 39043 ft | 524 kts | 112° |
| 2026-04-22 19:50 | 32.68350 | -111.00974 | 39042 ft | 526 kts | 111° |
| 2026-04-22 19:51 | 32.66433 | -110.92622 | 39045 ft | 528 kts | 110° |
| 2026-04-22 19:51 | 32.64504 | -110.84238 | 39054 ft | 530 kts | 110° |
| 2026-04-22 19:52 | 32.62556 | -110.75806 | 39073 ft | 531 kts | 110° |
| 2026-04-22 19:52 | 32.60596 | -110.67351 | 39098 ft | 532 kts | 110° |
| 2026-04-22 19:53 | 32.58623 | -110.58872 | 39133 ft | 533 kts | 110° |
| 2026-04-22 19:53 | 32.56650 | -110.50417 | 39171 ft | 534 kts | 110° |
| 2026-04-22 19:54 | 32.54680 | -110.42004 | 39213 ft | 534 kts | 110° |
| 2026-04-22 19:54 | 32.52689 | -110.33534 | 39271 ft | 534 kts | 111° |
| 2026-04-22 19:55 | 32.50699 | -110.25095 | 39315 ft | 533 kts | 111° |
| 2026-04-22 19:55 | 32.48700 | -110.16639 | 39330 ft | 533 kts | 111° |
| 2026-04-22 19:56 | 32.46707 | -110.08243 | 39356 ft | 533 kts | 111° |
| 2026-04-22 19:56 | 32.44702 | -109.99821 | 39366 ft | 533 kts | 111° |
| 2026-04-22 19:57 | 32.42685 | -109.91372 | 39410 ft | 532 kts | 111° |
| 2026-04-22 19:57 | 32.40673 | -109.82976 | 39427 ft | 533 kts | 111° |
| 2026-04-22 19:58 | 32.38655 | -109.74584 | 39461 ft | 533 kts | 111° |
| 2026-04-22 19:58 | 32.36636 | -109.66213 | 39510 ft | 532 kts | 111° |
| 2026-04-22 20:00 | 32.29494 | -109.36807 | 39626 ft | 533 kts | 111° |
| 2026-04-22 20:01 | 32.27433 | -109.28383 | 39647 ft | 532 kts | 111° |
| 2026-04-22 20:01 | 32.25478 | -109.19965 | 39661 ft | 533 kts | 110° |
| 2026-04-22 20:02 | 32.23554 | -109.11552 | 39651 ft | 533 kts | 110° |
| 2026-04-22 20:02 | 32.21616 | -109.03107 | 39643 ft | 534 kts | 109° |
| 2026-04-22 20:03 | 32.19673 | -108.94669 | 39640 ft | 536 kts | 109° |
| 2026-04-22 20:03 | 32.17722 | -108.86217 | 39644 ft | 536 kts | 109° |
| 2026-04-22 20:04 | 32.15760 | -108.77755 | 39649 ft | 537 kts | 109° |
| 2026-04-22 20:04 | 32.13781 | -108.69241 | 39668 ft | 537 kts | 109° |
| 2026-04-22 20:05 | 32.11809 | -108.60788 | 39686 ft | 538 kts | 109° |
| 2026-04-22 20:05 | 32.09815 | -108.52262 | 39717 ft | 538 kts | 109° |
| 2026-04-22 20:06 | 32.07824 | -108.43785 | 39756 ft | 538 kts | 109° |
| 2026-04-22 20:06 | 32.05841 | -108.35369 | 39788 ft | 538 kts | 109° |
| 2026-04-22 20:07 | 32.03817 | -108.26807 | 39779 ft | 538 kts | 110° |
| 2026-04-22 20:07 | 32.01809 | -108.18340 | 39790 ft | 538 kts | 110° |
| 2026-04-22 20:08 | 31.99805 | -108.09914 | 39791 ft | 537 kts | 110° |
| 2026-04-22 20:08 | 31.97788 | -108.01466 | 39795 ft | 538 kts | 110° |
| 2026-04-22 20:09 | 31.95748 | -107.92943 | 39804 ft | 538 kts | 110° |
| 2026-04-22 20:09 | 31.93718 | -107.84489 | 39814 ft | 538 kts | 110° |
| 2026-04-22 20:10 | 31.92122 | -107.75884 | 39859 ft | 541 kts | 101° |
| 2026-04-22 20:10 | 31.91425 | -107.67080 | 39871 ft | 543 kts | 96° |
| 2026-04-22 20:11 | 31.90848 | -107.58256 | 39884 ft | 543 kts | 97° |
| 2026-04-22 20:11 | 31.90259 | -107.49388 | 39901 ft | 544 kts | 97° |
| 2026-04-22 20:12 | 31.89666 | -107.40534 | 39935 ft | 544 kts | 97° |
| 2026-04-22 20:12 | 31.89066 | -107.31700 | 39983 ft | 543 kts | 97° |
| 2026-04-22 20:13 | 31.88460 | -107.22833 | 39999 ft | 543 kts | 97° |
| 2026-04-22 20:13 | 31.87851 | -107.14034 | 40001 ft | 543 kts | 97° |
| 2026-04-22 20:14 | 31.87231 | -107.05159 | 40004 ft | 543 kts | 97° |
| 2026-04-22 20:14 | 31.86606 | -106.96303 | 40008 ft | 544 kts | 97° |
| 2026-04-22 20:15 | 31.85972 | -106.87424 | 40012 ft | 545 kts | 96° |
| 2026-04-22 20:15 | 31.85336 | -106.78587 | 40023 ft | 546 kts | 96° |
| 2026-04-22 20:16 | 31.84690 | -106.69685 | 40041 ft | 547 kts | 96° |
| 2026-04-22 20:16 | 31.84036 | -106.60768 | 40063 ft | 548 kts | 96° |
| 2026-04-22 20:17 | 31.83375 | -106.51851 | 40091 ft | 549 kts | 96° |
| 2026-04-22 20:17 | 31.82708 | -106.42936 | 40123 ft | 549 kts | 96° |
| 2026-04-22 20:18 | 31.82036 | -106.34033 | 40156 ft | 549 kts | 97° |
| 2026-04-22 20:18 | 31.80741 | -106.25221 | 40155 ft | 545 kts | 108° |
| 2026-04-22 20:19 | 31.78524 | -106.16790 | 40150 ft | 544 kts | 111° |
| 2026-04-22 20:19 | 31.76231 | -106.08310 | 40145 ft | 544 kts | 111° |
| 2026-04-22 20:20 | 31.73947 | -105.99882 | 40145 ft | 544 kts | 111° |
| 2026-04-22 20:20 | 31.71654 | -105.91444 | 40150 ft | 544 kts | 111° |
| 2026-04-22 20:21 | 31.69344 | -105.82973 | 40164 ft | 544 kts | 111° |
| 2026-04-22 20:21 | 31.67022 | -105.74477 | 40186 ft | 544 kts | 111° |
| 2026-04-22 20:22 | 31.64702 | -105.66018 | 40209 ft | 544 kts | 111° |
| 2026-04-22 20:22 | 31.62373 | -105.57546 | 40232 ft | 545 kts | 111° |
| 2026-04-22 20:23 | 31.60055 | -105.49139 | 40266 ft | 544 kts | 111° |
| 2026-04-22 20:23 | 31.57720 | -105.40700 | 40309 ft | 544 kts | 111° |
| 2026-04-22 20:24 | 31.55528 | -105.32185 | 40348 ft | 545 kts | 109° |
| 2026-04-22 20:24 | 31.53438 | -105.23709 | 40344 ft | 545 kts | 109° |
| 2026-04-22 20:25 | 31.51331 | -105.15196 | 40445 ft | 542 kts | 109° |
| 2026-04-22 20:25 | 31.50283 | -105.10973 | 40595 ft | 539 kts | 109° |
| 2026-04-22 20:25 | 31.49231 | -105.06741 | 40596 ft | 540 kts | 109° |
| 2026-04-22 20:26 | 31.47117 | -104.98260 | 40592 ft | 542 kts | 109° |
| 2026-04-22 20:26 | 31.45007 | -104.89812 | 40594 ft | 544 kts | 108° |
| 2026-04-22 20:27 | 31.42873 | -104.81296 | 40605 ft | 546 kts | 108° |
| 2026-04-22 20:27 | 31.40724 | -104.72746 | 40623 ft | 548 kts | 108° |
| 2026-04-22 20:28 | 31.38574 | -104.64221 | 40646 ft | 549 kts | 108° |
| 2026-04-22 20:28 | 31.36406 | -104.55653 | 40714 ft | 549 kts | 108° |
| 2026-04-22 20:29 | 31.34233 | -104.47089 | 40793 ft | 549 kts | 108° |
| 2026-04-22 20:29 | 31.32059 | -104.38546 | 40877 ft | 549 kts | 108° |
| 2026-04-22 20:30 | 31.29857 | -104.29923 | 40936 ft | 549 kts | 109° |
| 2026-04-22 20:30 | 31.27667 | -104.21371 | 40960 ft | 549 kts | 109° |
| 2026-04-22 20:31 | 31.25475 | -104.12841 | 40989 ft | 549 kts | 109° |
| 2026-04-22 20:31 | 31.23279 | -104.04316 | 41022 ft | 549 kts | 109° |
| 2026-04-22 20:32 | 31.21083 | -103.95818 | 41056 ft | 549 kts | 109° |
| 2026-04-22 20:32 | 31.18875 | -103.87301 | 41091 ft | 549 kts | 109° |
| 2026-04-22 20:33 | 31.16672 | -103.78828 | 41134 ft | 549 kts | 109° |
| 2026-04-22 20:33 | 31.14445 | -103.70288 | 41184 ft | 549 kts | 109° |
| 2026-04-22 20:34 | 31.12205 | -103.61723 | 41229 ft | 549 kts | 109° |
| 2026-04-22 20:34 | 31.09978 | -103.53234 | 41280 ft | 549 kts | 109° |
| 2026-04-22 20:35 | 31.07740 | -103.44730 | 41333 ft | 549 kts | 109° |
| 2026-04-22 20:35 | 31.05502 | -103.36247 | 41385 ft | 549 kts | 109° |
| 2026-04-22 20:36 | 31.03246 | -103.27727 | 41424 ft | 548 kts | 110° |
| 2026-04-22 20:36 | 31.01010 | -103.19302 | 41535 ft | 545 kts | 109° |
| 2026-04-22 20:37 | 30.98770 | -103.10889 | 41576 ft | 544 kts | 109° |
| 2026-04-22 20:37 | 30.96520 | -103.02466 | 41582 ft | 545 kts | 109° |
| 2026-04-22 20:38 | 30.94305 | -102.94048 | 41587 ft | 545 kts | 108° |
| 2026-04-22 20:38 | 30.92120 | -102.85553 | 41627 ft | 545 kts | 108° |
| 2026-04-22 20:39 | 30.89950 | -102.77142 | 41700 ft | 543 kts | 108° |
| 2026-04-22 20:39 | 30.87774 | -102.68735 | 41761 ft | 542 kts | 108° |
| 2026-04-22 20:40 | 30.85602 | -102.60368 | 41787 ft | 542 kts | 108° |
| 2026-04-22 20:40 | 30.83406 | -102.51937 | 41807 ft | 542 kts | 108° |
| 2026-04-22 20:41 | 30.81226 | -102.43587 | 41831 ft | 542 kts | 108° |
| 2026-04-22 20:41 | 30.79023 | -102.35175 | 41861 ft | 542 kts | 108° |
| 2026-04-22 20:42 | 30.76816 | -102.26773 | 41847 ft | 542 kts | 108° |
| 2026-04-22 20:42 | 30.74628 | -102.18465 | 41834 ft | 542 kts | 108° |
| 2026-04-22 20:43 | 30.72419 | -102.10104 | 41828 ft | 542 kts | 108° |
| 2026-04-22 20:43 | 30.70194 | -102.01704 | 41826 ft | 542 kts | 108° |
| 2026-04-22 20:44 | 30.67971 | -101.93341 | 41828 ft | 542 kts | 108° |
| 2026-04-22 20:44 | 30.65739 | -101.84965 | 41836 ft | 542 kts | 108° |
| 2026-04-22 20:45 | 30.63516 | -101.76643 | 41849 ft | 542 kts | 108° |
| 2026-04-22 20:45 | 30.61280 | -101.68302 | 41865 ft | 542 kts | 108° |
| 2026-04-22 20:46 | 30.57907 | -101.55760 | 41897 ft | 542 kts | 108° |
| 2026-04-22 20:46 | 30.55656 | -101.47419 | 41924 ft | 542 kts | 108° |
| 2026-04-22 20:47 | 30.53408 | -101.39114 | 41956 ft | 542 kts | 108° |
| 2026-04-22 20:47 | 30.51148 | -101.30786 | 41973 ft | 542 kts | 109° |
| 2026-04-22 20:48 | 30.48880 | -101.22456 | 41964 ft | 542 kts | 109° |
| 2026-04-22 20:48 | 30.46605 | -101.14121 | 41956 ft | 542 kts | 109° |
| 2026-04-22 20:49 | 30.44332 | -101.05817 | 41955 ft | 542 kts | 109° |
| 2026-04-22 20:49 | 30.42040 | -100.97475 | 41952 ft | 542 kts | 108° |
| 2026-04-22 20:50 | 30.39762 | -100.89190 | 41954 ft | 543 kts | 108° |
| 2026-04-22 20:50 | 30.37460 | -100.80849 | 41962 ft | 544 kts | 108° |
| 2026-04-22 20:51 | 30.35151 | -100.72508 | 41980 ft | 545 kts | 108° |
| 2026-04-22 20:51 | 30.32833 | -100.64154 | 42003 ft | 546 kts | 108° |
| 2026-04-22 20:52 | 30.30509 | -100.55803 | 42031 ft | 547 kts | 108° |
| 2026-04-22 20:52 | 30.28169 | -100.47417 | 42065 ft | 547 kts | 108° |
| 2026-04-22 20:53 | 30.25832 | -100.39067 | 42103 ft | 548 kts | 108° |
| 2026-04-22 20:53 | 30.23472 | -100.30656 | 42117 ft | 548 kts | 108° |
| 2026-04-22 20:54 | 30.21113 | -100.22272 | 42108 ft | 549 kts | 108° |
| 2026-04-22 20:54 | 30.18742 | -100.13870 | 42105 ft | 549 kts | 108° |
| 2026-04-22 20:55 | 30.16377 | -100.05509 | 42106 ft | 549 kts | 108° |
| 2026-04-22 20:55 | 30.14000 | -99.97131 | 42113 ft | 549 kts | 108° |
| 2026-04-22 20:56 | 30.11613 | -99.88739 | 42125 ft | 549 kts | 108° |
| 2026-04-22 20:56 | 30.09224 | -99.80366 | 42142 ft | 550 kts | 108° |
| 2026-04-22 20:57 | 30.06826 | -99.71981 | 42164 ft | 550 kts | 108° |
| 2026-04-22 20:57 | 30.04428 | -99.63621 | 42191 ft | 550 kts | 108° |
| 2026-04-22 20:58 | 30.02013 | -99.55220 | 42224 ft | 550 kts | 108° |
| 2026-04-22 20:58 | 29.99605 | -99.46871 | 42262 ft | 550 kts | 108° |
| 2026-04-22 20:59 | 29.97178 | -99.38475 | 42305 ft | 550 kts | 108° |
| 2026-04-22 20:59 | 29.94752 | -99.30106 | 42322 ft | 549 kts | 109° |
| 2026-04-22 21:00 | 29.92265 | -99.21798 | 42318 ft | 549 kts | 112° |
| 2026-04-22 21:00 | 29.89391 | -99.13681 | 42320 ft | 549 kts | 114° |
| 2026-04-22 21:01 | 29.86414 | -99.05577 | 42303 ft | 549 kts | 114° |
| 2026-04-22 21:01 | 29.83434 | -98.97480 | 42291 ft | 550 kts | 114° |
| 2026-04-22 21:02 | 29.80456 | -98.89406 | 42285 ft | 551 kts | 114° |
| 2026-04-22 21:02 | 29.77452 | -98.81279 | 42287 ft | 552 kts | 114° |
| 2026-04-22 21:03 | 29.74443 | -98.73155 | 42297 ft | 552 kts | 114° |
| 2026-04-22 21:03 | 29.71449 | -98.65074 | 42312 ft | 553 kts | 114° |
| 2026-04-22 21:04 | 29.68430 | -98.56947 | 42333 ft | 554 kts | 114° |
| 2026-04-22 21:04 | 29.65410 | -98.48785 | 42326 ft | 555 kts | 110° |
| 2026-04-22 21:05 | 29.64300 | -98.44508 | 42176 ft | 556 kts | 103° |
| 2026-04-22 21:05 | 29.63506 | -98.40220 | 41948 ft | 554 kts | 98° |
| 2026-04-22 21:05 | 29.62850 | -98.35864 | 41719 ft | 552 kts | 97° |
| 2026-04-22 21:05 | 29.62192 | -98.31494 | 41463 ft | 552 kts | 98° |
| 2026-04-22 21:06 | 29.61532 | -98.27155 | 41204 ft | 551 kts | 98° |
| 2026-04-22 21:06 | 29.60875 | -98.22835 | 40999 ft | 550 kts | 98° |
| 2026-04-22 21:06 | 29.59571 | -98.14297 | 41005 ft | 547 kts | 98° |
| 2026-04-22 21:07 | 29.58249 | -98.05678 | 40998 ft | 548 kts | 98° |
| 2026-04-22 21:07 | 29.56920 | -97.97046 | 40990 ft | 550 kts | 98° |
| 2026-04-22 21:08 | 29.55586 | -97.88428 | 40983 ft | 552 kts | 98° |
| 2026-04-22 21:08 | 29.54904 | -97.84037 | 40704 ft | 557 kts | 98° |
| 2026-04-22 21:08 | 29.54226 | -97.79678 | 40219 ft | 561 kts | 98° |
| 2026-04-22 21:09 | 29.53540 | -97.75284 | 39735 ft | 561 kts | 98° |
| 2026-04-22 21:09 | 29.52856 | -97.70910 | 39252 ft | 560 kts | 98° |
| 2026-04-22 21:09 | 29.52164 | -97.66496 | 38763 ft | 559 kts | 98° |
| 2026-04-22 21:09 | 29.51485 | -97.62172 | 38284 ft | 557 kts | 98° |
| 2026-04-22 21:10 | 29.50796 | -97.57789 | 37799 ft | 556 kts | 98° |
| 2026-04-22 21:10 | 29.50115 | -97.53474 | 37319 ft | 553 kts | 98° |
| 2026-04-22 21:10 | 29.49431 | -97.49145 | 36838 ft | 551 kts | 98° |
| 2026-04-22 21:10 | 29.48747 | -97.44828 | 36357 ft | 549 kts | 98° |
| 2026-04-22 21:11 | 29.48066 | -97.40540 | 35878 ft | 547 kts | 98° |
| 2026-04-22 21:11 | 29.47377 | -97.36208 | 35394 ft | 545 kts | 98° |
| 2026-04-22 21:11 | 29.46703 | -97.31974 | 34901 ft | 548 kts | 99° |
| 2026-04-22 21:11 | 29.46013 | -97.27661 | 34402 ft | 552 kts | 99° |
| 2026-04-22 21:12 | 29.45320 | -97.23332 | 33905 ft | 557 kts | 99° |
| 2026-04-22 21:12 | 29.44617 | -97.18949 | 33409 ft | 561 kts | 99° |
| 2026-04-22 21:12 | 29.43905 | -97.14521 | 32911 ft | 564 kts | 99° |
| 2026-04-22 21:12 | 29.43194 | -97.10116 | 32419 ft | 568 kts | 99° |
| 2026-04-22 21:13 | 29.42478 | -97.05682 | 31927 ft | 567 kts | 99° |
| 2026-04-22 21:13 | 29.41759 | -97.01248 | 31424 ft | 561 kts | 99° |
| 2026-04-22 21:13 | 29.41102 | -96.96876 | 30922 ft | 555 kts | 96° |
| 2026-04-22 21:13 | 29.40649 | -96.92539 | 30325 ft | 551 kts | 93° |
| 2026-04-22 21:14 | 29.40241 | -96.88143 | 29702 ft | 548 kts | 93° |
| 2026-04-22 21:14 | 29.39837 | -96.83855 | 29090 ft | 545 kts | 94° |
| 2026-04-22 21:14 | 29.39429 | -96.79562 | 28474 ft | 542 kts | 94° |
| 2026-04-22 21:14 | 29.39020 | -96.75268 | 27857 ft | 539 kts | 94° |
| 2026-04-22 21:15 | 29.38614 | -96.71014 | 27176 ft | 540 kts | 94° |
| 2026-04-22 21:15 | 29.38204 | -96.66740 | 26441 ft | 540 kts | 94° |
| 2026-04-22 21:15 | 29.37788 | -96.62444 | 25705 ft | 543 kts | 94° |
| 2026-04-22 21:15 | 29.37369 | -96.58157 | 24839 ft | 546 kts | 94° |
| 2026-04-22 21:16 | 29.36947 | -96.53850 | 23844 ft | 541 kts | 94° |
| 2026-04-22 21:16 | 29.36536 | -96.49669 | 22686 ft | 530 kts | 94° |
| 2026-04-22 21:16 | 29.36135 | -96.45576 | 20886 ft | 517 kts | 94° |
| 2026-04-22 21:16 | 29.35743 | -96.41575 | 19260 ft | 500 kts | 95° |
| 2026-04-22 21:17 | 29.35362 | -96.37714 | 17654 ft | 483 kts | 95° |
| 2026-04-22 21:17 | 29.34992 | -96.33961 | 15950 ft | 469 kts | 95° |
| 2026-04-22 21:17 | 29.34636 | -96.30370 | 14361 ft | 452 kts | 96° |
| 2026-04-22 21:17 | 29.34283 | -96.26811 | 13050 ft | 446 kts | 96° |
| 2026-04-22 21:18 | 29.33937 | -96.23338 | 13009 ft | 441 kts | 96° |
| 2026-04-22 21:18 | 29.33587 | -96.19836 | 13042 ft | 443 kts | 96° |
| 2026-04-22 21:18 | 29.33237 | -96.16345 | 13035 ft | 443 kts | 96° |
| 2026-04-22 21:18 | 29.32963 | -96.12800 | 13020 ft | 445 kts | 88° |
| 2026-04-22 21:19 | 29.33291 | -96.09360 | 12809 ft | 425 kts | 79° |
| 2026-04-22 21:19 | 29.34294 | -96.06221 | 11346 ft | 426 kts | 57° |
| 2026-04-22 21:19 | 29.36049 | -96.03588 | 10282 ft | 417 kts | 50° |
| 2026-04-22 21:19 | 29.37839 | -96.01071 | 9974 ft | 391 kts | 50° |
| 2026-04-22 21:20 | 29.39499 | -95.98681 | 10028 ft | 379 kts | 51° |
| 2026-04-22 21:20 | 29.41111 | -95.96343 | 10031 ft | 370 kts | 51° |
| 2026-04-22 21:20 | 29.42669 | -95.94076 | 10028 ft | 355 kts | 51° |
| 2026-04-22 21:20 | 29.44179 | -95.91881 | 10029 ft | 342 kts | 51° |
| 2026-04-22 21:21 | 29.45613 | -95.89793 | 10034 ft | 330 kts | 51° |
| 2026-04-22 21:21 | 29.46972 | -95.87769 | 10021 ft | 309 kts | 53° |
| 2026-04-22 21:21 | 29.48195 | -95.85796 | 9867 ft | 296 kts | 54° |
| 2026-04-22 21:21 | 29.49369 | -95.83877 | 9364 ft | 296 kts | 54° |
| 2026-04-22 21:22 | 29.50548 | -95.81944 | 8894 ft | 294 kts | 54° |
| 2026-04-22 21:22 | 29.51714 | -95.80031 | 8450 ft | 292 kts | 54° |
| 2026-04-22 21:22 | 29.52863 | -95.78143 | 7997 ft | 291 kts | 54° |
| 2026-04-22 21:22 | 29.54010 | -95.76260 | 7551 ft | 289 kts | 54° |
| 2026-04-22 21:23 | 29.55157 | -95.74372 | 7122 ft | 286 kts | 54° |
| 2026-04-22 21:23 | 29.56276 | -95.72531 | 7026 ft | 271 kts | 54° |
| 2026-04-22 21:23 | 29.57323 | -95.70810 | 7037 ft | 252 kts | 55° |
| 2026-04-22 21:23 | 29.58294 | -95.69211 | 7038 ft | 240 kts | 55° |
| 2026-04-22 21:24 | 29.59250 | -95.67636 | 7060 ft | 240 kts | 55° |
| 2026-04-22 21:24 | 29.60211 | -95.66054 | 7060 ft | 241 kts | 55° |
| 2026-04-22 21:24 | 29.61151 | -95.64505 | 7027 ft | 235 kts | 55° |
| 2026-04-22 21:24 | 29.62091 | -95.62955 | 6605 ft | 239 kts | 55° |
| 2026-04-22 21:25 | 29.63041 | -95.61388 | 6246 ft | 239 kts | 55° |
| 2026-04-22 21:25 | 29.64076 | -95.59905 | 6054 ft | 240 kts | 48° |
| 2026-04-22 21:25 | 29.65215 | -95.58509 | 6053 ft | 235 kts | 41° |
| 2026-04-22 21:25 | 29.66502 | -95.57427 | 5915 ft | 227 kts | 32° |
| 2026-04-22 21:26 | 29.67794 | -95.56484 | 5872 ft | 212 kts | 32° |
| 2026-04-22 21:26 | 29.68982 | -95.55608 | 5803 ft | 191 kts | 32° |
| 2026-04-22 21:26 | 29.70090 | -95.54789 | 5240 ft | 191 kts | 32° |
| 2026-04-22 21:26 | 29.70993 | -95.53718 | 4577 ft | 190 kts | 71° |
| 2026-04-22 21:27 | 29.71100 | -95.52265 | 3984 ft | 186 kts | 97° |
| 2026-04-22 21:27 | 29.71033 | -95.50773 | 3590 ft | 185 kts | 91° |
| 2026-04-22 21:27 | 29.71067 | -95.49314 | 3289 ft | 180 kts | 89° |
| 2026-04-22 21:27 | 29.71131 | -95.47890 | 2943 ft | 177 kts | 88° |
| 2026-04-22 21:28 | 29.71200 | -95.46503 | 2594 ft | 175 kts | 88° |
| 2026-04-22 21:28 | 29.71272 | -95.45097 | 2216 ft | 175 kts | 88° |
| 2026-04-22 21:28 | 29.71342 | -95.43713 | 2037 ft | 173 kts | 88° |
| 2026-04-22 21:28 | 29.71412 | -95.42337 | 2058 ft | 171 kts | 88° |
| 2026-04-22 21:29 | 29.71482 | -95.40971 | 2062 ft | 172 kts | 88° |
| 2026-04-22 21:29 | 29.71552 | -95.39574 | 2062 ft | 173 kts | 88° |
| 2026-04-22 21:29 | 29.71622 | -95.38213 | 2165 ft | 159 kts | 88° |
| 2026-04-22 21:29 | 29.71584 | -95.37042 | 2010 ft | 144 kts | 108° |
| 2026-04-22 21:30 | 29.71220 | -95.35995 | 1838 ft | 138 kts | 121° |
| 2026-04-22 21:30 | 29.70645 | -95.35143 | 1667 ft | 135 kts | 133° |
| 2026-04-22 21:30 | 29.69993 | -95.34374 | 1494 ft | 132 kts | 134° |
| 2026-04-22 21:30 | 29.69365 | -95.33627 | 1319 ft | 129 kts | 134° |
| 2026-04-22 21:31 | 29.68750 | -95.32896 | 1150 ft | 126 kts | 134° |
| 2026-04-22 21:31 | 29.68143 | -95.32175 | 985 ft | 125 kts | 134° |
| 2026-04-22 21:31 | 29.67543 | -95.31457 | 811 ft | 124 kts | 133° |
| 2026-04-22 21:31 | 29.66957 | -95.30742 | 641 ft | 120 kts | 134° |
| 2026-04-22 21:32 | 29.66378 | -95.30063 | 508 ft | 119 kts | 134° |
| 2026-04-22 21:32 | 29.65797 | -95.29385 | 345 ft | 117 kts | 134° |
| 2026-04-22 21:32 | 29.65230 | -95.28712 | 139 ft | 117 kts | 134° |
| 2026-04-22 21:32 | 29.64685 | -95.28065 | 51 ft | 101 kts | 134° |
| 2026-04-22 21:33 | 29.64358 | -95.27676 | 50 ft | 29 kts | 133° |
| 2026-04-22 21:33 | 29.64226 | -95.27516 | 50 ft | 24 kts | 133° |
| 2026-04-22 21:33 | 29.64205 | -95.27445 | 50 ft | 6 kts | 43° |
| 2026-04-22 21:33 | 29.64225 | -95.27425 | 50 ft | 3 kts | 43° |
| 2026-04-22 21:34 | 29.64270 | -95.27374 | 50 ft | 13 kts | 44° |
| 2026-04-22 21:34 | 29.64362 | -95.27273 | 50 ft | 19 kts | 44° |
| 2026-04-22 21:34 | 29.64418 | -95.27271 | 50 ft | 9 kts | 313° |
| 2026-04-22 21:34 | 29.64492 | -95.27358 | 50 ft | 20 kts | 314° |
| 2026-04-22 21:35 | 29.64560 | -95.27415 | 50 ft | 8 kts | 15° |
| 2026-04-22 21:35 | 29.64617 | -95.27399 | 50 ft | 9 kts | 11° |
| 2026-04-22 21:35 | 29.64658 | -95.27362 | 50 ft | 5 kts | 43° |
| 2026-04-22 21:35 | 29.64689 | -95.27308 | 50 ft | 9 kts | 88° |
| 2026-04-22 21:36 | 29.64670 | -95.27285 | 50 ft | 7 kts | 277° |
| 2026-04-22 21:36 | 29.64676 | -95.27298 | 50 ft | 0 kts | 297° |